Terminal Aerodrome Forecast
Issued by NWS Wilmington, OH

Current Version | Previous Version | Text Only | Print | Product List | Glossary Off
Versions: 1 2 3 4 5 6 7 8 9 10 11 12 13 14 15 16 17 18 19 20 21 22 23 24 25 26 27 28 29 30 31 32

158
FTUS41 KILN 152057 AAA
TAFCVG
TAF AMD
KCVG 152057Z 1521/1624 06006KT 2SM -RA BR OVC006
     FM160000 07005KT P6SM VCSH OVC006
     FM160500 08006KT 4SM -DZ BR OVC006
     FM161500 12006KT P6SM OVC012=

USA.gov is the U.S. government's official web portal to all federal, state and local government web resources and services.